Time;durP1;ratioP1;P1;durP2;ratioP2;P2;SDS_P1;SDS_P2;PMS_P1;PMS_P2;Temp;Humidity;BMP_temperature;BMP_pressure;BME280_temperature;BME280_humidity;BME280_pressure;Samples;Min_cycle;Max_cycle;Signal;HPM_P1;HPM_P2
2023/08/11 00:00:08;;;;;;;2.47;2.28;;;;;;;;;;5067060;28;20380;-86
2023/08/11 00:02:34;;;;;;;2.60;2.35;;;;;;;;;;5089164;28;20414;-86
2023/08/11 00:05:00;;;;;;;2.88;2.60;;;;;;;;;;5091156;28;20383;-86
2023/08/11 00:07:26;;;;;;;2.80;2.60;;;;;;;;;;5067802;28;20403;-86
2023/08/11 00:09:52;;;;;;;2.55;2.30;;;;;;;;;;5072764;28;20386;-86
2023/08/11 00:12:18;;;;;;;2.88;2.67;;;;;;;;;;5068213;28;20422;-86
2023/08/11 00:14:44;;;;;;;2.72;2.53;;;;;;;;;;5083901;28;20439;-86
2023/08/11 00:17:10;;;;;;;2.72;2.50;;;;;;;;;;5088791;28;20380;-86
2023/08/11 00:19:36;;;;;;;2.83;2.63;;;;;;;;;;5071966;28;20375;-86
2023/08/11 00:22:02;;;;;;;2.70;2.50;;;;;;;;;;5094502;28;20413;-86
2023/08/11 00:24:28;;;;;;;3.20;2.50;;;;;;;;;;5089881;28;20420;-86
2023/08/11 00:26:54;;;;;;;2.60;2.40;;;;;;;;;;5086756;28;20396;-86
2023/08/11 00:29:20;;;;;;;2.90;2.60;;;;;;;;;;5076745;28;20387;-86
2023/08/11 00:31:47;;;;;;;2.67;2.47;;;;;;;;;;5083394;28;20383;-86
2023/08/11 00:34:13;;;;;;;2.92;2.55;;;;;;;;;;5084441;28;20467;-86
2023/08/11 00:36:40;;;;;;;2.70;2.50;;;;;;;;;;5090763;28;20452;-86
2023/08/11 00:39:07;;;;;;;3.05;2.75;;;;;;;;;;5089997;28;20390;-86
2023/08/11 00:41:33;;;;;;;2.80;2.60;;;;;;;;;;5085811;28;20480;-86
2023/08/11 00:43:59;;;;;;;3.13;2.83;;;;;;;;;;5072209;28;20465;-86
2023/08/11 00:46:25;;;;;;;2.88;2.67;;;;;;;;;;5090801;28;20382;-86
2023/08/11 00:48:54;;;;;;;2.80;2.60;;;;;;;;;;5094081;28;20386;-86
2023/08/11 00:51:21;;;;;;;2.83;2.63;;;;;;;;;;5076071;28;20928;-86
2023/08/11 00:53:48;;;;;;;2.90;2.70;;;;;;;;;;5081134;28;20379;-86
2023/08/11 00:56:14;;;;;;;2.67;2.47;;;;;;;;;;5094011;28;20408;-86
2023/08/11 00:58:41;;;;;;;2.55;2.35;;;;;;;;;;5073064;28;20382;-86
2023/08/11 01:01:08;;;;;;;3.00;2.75;;;;;;;;;;5081500;28;20414;-86
2023/08/11 01:03:34;;;;;;;2.77;2.57;;;;;;;;;;5092073;28;20406;-86
2023/08/11 01:06:29;;;;;;;3.55;2.78;;;;;;;;;;5081381;28;20376;-86
2023/08/11 01:09:05;;;;;;;2.70;2.50;;;;;;;;;;5060529;28;20393;-86
2023/08/11 01:11:50;;;;;;;2.75;2.55;;;;;;;;;;5079937;28;20395;-86
2023/08/11 01:14:22;;;;;;;3.33;2.65;;;;;;;;;;5085605;28;20419;-86
2023/08/11 01:16:50;;;;;;;2.78;2.47;;;;;;;;;;5091522;28;20387;-86
2023/08/11 01:19:28;;;;;;;2.90;2.70;;;;;;;;;;5082373;28;20403;-86
2023/08/11 01:21:55;;;;;;;2.80;2.60;;;;;;;;;;5081497;28;20825;-86
2023/08/11 01:24:22;;;;;;;2.90;2.60;;;;;;;;;;5078157;28;20450;-86
2023/08/11 01:26:48;;;;;;;3.00;2.78;;;;;;;;;;5090754;28;20384;-86
2023/08/11 01:29:14;;;;;;;2.90;2.70;;;;;;;;;;5094328;28;20432;-86
2023/08/11 01:31:40;;;;;;;2.80;2.50;;;;;;;;;;5079012;28;20375;-86
2023/08/11 01:34:06;;;;;;;2.80;2.53;;;;;;;;;;5086849;28;20857;-86
2023/08/11 01:36:32;;;;;;;2.95;2.75;;;;;;;;;;5086826;28;20987;-86
2023/08/11 01:38:58;;;;;;;2.95;2.75;;;;;;;;;;5086683;28;20475;-86
2023/08/11 01:41:24;;;;;;;2.70;2.50;;;;;;;;;;5080110;28;20438;-86
2023/08/11 01:43:52;;;;;;;2.87;2.67;;;;;;;;;;5091616;28;20752;-86
2023/08/11 01:46:18;;;;;;;3.03;2.83;;;;;;;;;;5086060;28;20887;-86
2023/08/11 01:48:44;;;;;;;2.90;2.70;;;;;;;;;;5093347;28;20471;-86
2023/08/11 01:51:10;;;;;;;3.03;2.83;;;;;;;;;;5078484;28;20392;-87
2023/08/11 01:53:39;;;;;;;2.65;2.45;;;;;;;;;;5077613;28;20379;-87
2023/08/11 01:56:05;;;;;;;3.03;2.80;;;;;;;;;;5085731;28;20390;-86
2023/08/11 01:58:32;;;;;;;3.00;2.80;;;;;;;;;;5086020;28;20729;-86
2023/08/11 02:00:58;;;;;;;3.00;2.80;;;;;;;;;;5090528;28;20732;-87
2023/08/11 02:03:24;;;;;;;2.95;2.70;;;;;;;;;;5091900;28;20468;-87
2023/08/11 02:05:50;;;;;;;2.90;2.70;;;;;;;;;;5078208;28;20379;-87
2023/08/11 02:08:17;;;;;;;3.05;2.75;;;;;;;;;;5080987;28;20520;-86
2023/08/11 02:10:45;;;;;;;2.78;2.58;;;;;;;;;;5065226;28;20857;-86
2023/08/11 02:13:11;;;;;;;3.00;2.80;;;;;;;;;;5078008;28;20400;-86
2023/08/11 02:15:37;;;;;;;2.83;2.63;;;;;;;;;;5087799;28;20390;-86
2023/08/11 02:18:03;;;;;;;3.25;2.97;;;;;;;;;;5070788;28;20743;-86
2023/08/11 02:20:32;;;;;;;3.15;2.78;;;;;;;;;;5069798;28;20384;-86
2023/08/11 02:22:58;;;;;;;3.05;2.85;;;;;;;;;;5057430;28;20411;-86
2023/08/11 02:25:25;;;;;;;2.75;2.55;;;;;;;;;;5074069;28;20432;-86
2023/08/11 02:27:51;;;;;;;3.20;3.00;;;;;;;;;;5085364;28;20379;-86
2023/08/11 02:30:18;;;;;;;3.00;2.80;;;;;;;;;;5073228;28;20941;-86
2023/08/11 02:32:47;;;;;;;3.17;2.90;;;;;;;;;;5074352;28;20575;-86
2023/08/11 02:35:15;;;;;;;3.10;2.70;;;;;;;;;;5086626;28;22870;-86
2023/08/11 02:37:41;;;;;;;2.97;2.70;;;;;;;;;;5074302;28;20390;-86
2023/08/11 02:40:09;;;;;;;2.90;2.70;;;;;;;;;;5085652;28;20380;-85
2023/08/11 02:42:35;;;;;;;3.40;3.10;;;;;;;;;;5073931;28;20443;-86
2023/08/11 02:45:03;;;;;;;3.10;2.90;;;;;;;;;;5074157;28;20380;-86
2023/08/11 02:47:29;;;;;;;3.17;2.90;;;;;;;;;;5073532;28;20737;-86
2023/08/11 02:49:55;;;;;;;3.78;2.72;;;;;;;;;;5086989;28;20886;-86
2023/08/11 02:52:21;;;;;;;2.70;2.50;;;;;;;;;;5085342;28;20413;-86
2023/08/11 02:54:47;;;;;;;3.40;3.10;;;;;;;;;;5087127;28;20409;-86
2023/08/11 02:57:13;;;;;;;3.28;2.50;;;;;;;;;;5079109;28;20417;-86
2023/08/11 02:59:39;;;;;;;3.08;2.88;;;;;;;;;;5073397;28;20387;-86
2023/08/11 03:02:07;;;;;;;2.85;2.65;;;;;;;;;;5087507;28;20829;-86
2023/08/11 03:04:36;;;;;;;3.22;2.95;;;;;;;;;;5075025;28;20372;-86
2023/08/11 03:07:05;;;;;;;3.95;2.85;;;;;;;;;;5082982;28;20386;-86
2023/08/11 03:09:31;;;;;;;3.28;2.97;;;;;;;;;;5087037;28;20392;-86
2023/08/11 03:11:57;;;;;;;2.95;2.70;;;;;;;;;;5076472;28;20769;-86
2023/08/11 03:14:23;;;;;;;2.80;2.60;;;;;;;;;;5076479;28;20728;-86
2023/08/11 03:16:49;;;;;;;2.97;2.78;;;;;;;;;;5079347;28;20382;-86
2023/08/11 03:19:15;;;;;;;3.20;3.00;;;;;;;;;;5073812;28;20402;-86
2023/08/11 03:21:41;;;;;;;3.08;2.80;;;;;;;;;;5065280;28;20436;-86
2023/08/11 03:24:07;;;;;;;3.25;2.95;;;;;;;;;;5062901;28;20384;-86
2023/08/11 03:26:33;;;;;;;2.90;2.70;;;;;;;;;;5072402;28;20549;-86
2023/08/11 03:28:59;;;;;;;3.70;2.90;;;;;;;;;;5067708;28;20431;-86
2023/08/11 03:31:25;;;;;;;2.78;2.58;;;;;;;;;;5064520;28;20850;-87
2023/08/11 03:33:51;;;;;;;2.70;2.50;;;;;;;;;;5078081;28;20393;-87
2023/08/11 03:36:17;;;;;;;3.13;2.92;;;;;;;;;;5080778;28;20384;-86
2023/08/11 03:38:43;;;;;;;2.95;2.75;;;;;;;;;;5070950;28;20486;-86
2023/08/11 03:41:09;;;;;;;3.47;2.90;;;;;;;;;;5062812;28;20400;-86
2023/08/11 03:43:35;;;;;;;3.00;2.80;;;;;;;;;;5073960;28;20413;-86
2023/08/11 03:46:01;;;;;;;2.90;2.70;;;;;;;;;;5072971;28;20715;-86
2023/08/11 03:48:27;;;;;;;3.08;2.88;;;;;;;;;;5072936;28;20910;-86
2023/08/11 03:50:58;;;;;;;3.00;2.80;;;;;;;;;;5082921;28;20413;-86
2023/08/11 03:53:24;;;;;;;3.17;2.97;;;;;;;;;;5070481;28;20412;-86
2023/08/11 03:55:51;;;;;;;3.15;2.85;;;;;;;;;;5075355;28;20384;-86
2023/08/11 03:58:17;;;;;;;3.47;3.17;;;;;;;;;;5075523;28;20380;-85
2023/08/11 04:00:43;;;;;;;3.22;2.92;;;;;;;;;;5095806;28;20776;-86
2023/08/11 04:03:09;;;;;;;3.30;3.00;;;;;;;;;;5081697;28;20423;-85
2023/08/11 04:05:36;;;;;;;3.30;3.00;;;;;;;;;;5078586;28;20382;-86
2023/08/11 04:08:05;;;;;;;3.20;2.90;;;;;;;;;;5079046;28;20791;-87
2023/08/11 04:10:31;;;;;;;3.50;3.20;;;;;;;;;;5069395;28;20424;-86
2023/08/11 04:12:57;;;;;;;3.50;3.20;;;;;;;;;;5094285;28;20382;-86
2023/08/11 04:15:24;;;;;;;3.15;2.80;;;;;;;;;;5081813;28;20381;-86
2023/08/11 04:17:50;;;;;;;4.00;2.85;;;;;;;;;;5077267;28;20378;-86
2023/08/11 04:20:17;;;;;;;2.90;2.70;;;;;;;;;;5079629;28;20520;-86
2023/08/11 04:22:43;;;;;;;3.10;2.70;;;;;;;;;;5093495;28;20771;-86
2023/08/11 04:25:10;;;;;;;3.10;2.80;;;;;;;;;;5093409;28;20390;-86
2023/08/11 04:27:37;;;;;;;3.08;2.88;;;;;;;;;;5092942;28;20390;-86
2023/08/11 04:30:03;;;;;;;2.97;2.78;;;;;;;;;;5091763;28;20431;-86
2023/08/11 04:32:29;;;;;;;3.17;2.90;;;;;;;;;;5064200;28;20387;-86
2023/08/11 04:34:55;;;;;;;3.33;3.10;;;;;;;;;;5070170;28;20462;-86
2023/08/11 04:37:21;;;;;;;3.27;2.97;;;;;;;;;;5076825;28;20433;-86
2023/08/11 04:39:47;;;;;;;3.17;2.97;;;;;;;;;;5093399;28;20393;-87
2023/08/11 04:42:14;;;;;;;4.07;3.50;;;;;;;;;;5093170;28;20736;-86
2023/08/11 04:44:40;;;;;;;4.25;3.75;;;;;;;;;;5093074;28;20394;-86
2023/08/11 04:47:06;;;;;;;3.50;3.20;;;;;;;;;;5086281;28;20382;-86
2023/08/11 04:49:32;;;;;;;4.57;3.67;;;;;;;;;;5057403;28;20857;-86
2023/08/11 04:51:58;;;;;;;5.40;3.60;;;;;;;;;;5076155;28;20853;-86
2023/08/11 04:54:24;;;;;;;3.78;3.47;;;;;;;;;;5070158;28;20406;-86
2023/08/11 04:56:50;;;;;;;3.45;3.25;;;;;;;;;;5070399;28;20465;-86
2023/08/11 04:59:17;;;;;;;3.42;3.13;;;;;;;;;;5094004;28;20751;-86
2023/08/11 05:01:43;;;;;;;3.55;3.25;;;;;;;;;;5078952;28;20402;-86
2023/08/11 05:04:09;;;;;;;3.95;3.30;;;;;;;;;;5091875;28;20386;-86
2023/08/11 05:06:35;;;;;;;3.60;3.30;;;;;;;;;;5095942;28;20379;-85
2023/08/11 05:09:02;;;;;;;3.22;2.88;;;;;;;;;;5075209;28;20393;-85
2023/08/11 05:11:29;;;;;;;2.90;2.70;;;;;;;;;;5086611;28;20766;-85
2023/08/11 05:13:55;;;;;;;3.47;3.17;;;;;;;;;;5069445;28;20378;-85
2023/08/11 05:16:21;;;;;;;3.88;3.47;;;;;;;;;;5068848;28;20881;-86
2023/08/11 05:18:47;;;;;;;3.30;3.00;;;;;;;;;;5069226;28;20392;-86
2023/08/11 05:21:13;;;;;;;3.47;3.17;;;;;;;;;;5087128;28;20406;-86
2023/08/11 05:23:39;;;;;;;3.60;3.30;;;;;;;;;;5066933;28;20459;-86
2023/08/11 05:26:05;;;;;;;3.42;3.13;;;;;;;;;;5058842;28;20698;-85
2023/08/11 05:28:31;;;;;;;3.63;3.35;;;;;;;;;;5078790;28;20403;-87
2023/08/11 05:30:58;;;;;;;3.83;3.53;;;;;;;;;;5088263;28;20378;-86
2023/08/11 05:33:26;;;;;;;3.53;3.22;;;;;;;;;;5074130;28;20502;-88
2023/08/11 05:35:52;;;;;;;3.92;3.60;;;;;;;;;;5080907;28;20385;-85
2023/08/11 05:38:21;;;;;;;3.70;3.40;;;;;;;;;;5063536;28;20926;-87
2023/08/11 05:40:47;;;;;;;4.10;3.80;;;;;;;;;;5073639;28;20391;-86
2023/08/11 05:43:13;;;;;;;3.92;3.40;;;;;;;;;;5072426;28;20386;-87
2023/08/11 05:45:39;;;;;;;4.78;3.40;;;;;;;;;;5072950;28;20523;-86
2023/08/11 05:48:05;;;;;;;4.30;4.00;;;;;;;;;;5075203;28;20402;-85
2023/08/11 05:50:31;;;;;;;4.20;3.80;;;;;;;;;;5075862;28;20382;-85
2023/08/11 05:52:57;;;;;;;4.50;4.10;;;;;;;;;;5080008;28;20396;-85
2023/08/11 05:55:23;;;;;;;4.18;3.80;;;;;;;;;;5077159;28;20389;-84
2023/08/11 05:57:49;;;;;;;4.20;3.90;;;;;;;;;;5080621;28;20378;-85
2023/08/11 06:00:17;;;;;;;4.10;3.70;;;;;;;;;;5085466;28;20461;-85
2023/08/11 06:02:43;;;;;;;3.55;3.25;;;;;;;;;;5079810;28;20413;-85
2023/08/11 06:05:09;;;;;;;3.53;3.25;;;;;;;;;;5065784;28;20387;-85
2023/08/11 06:07:35;;;;;;;4.30;3.75;;;;;;;;;;5086667;28;20750;-85
2023/08/11 06:10:01;;;;;;;3.67;3.38;;;;;;;;;;5079313;28;20415;-85
2023/08/11 06:12:30;;;;;;;3.97;3.60;;;;;;;;;;5089008;28;20856;-85
2023/08/11 06:14:56;;;;;;;3.53;3.22;;;;;;;;;;5080448;28;20419;-85
2023/08/11 06:17:22;;;;;;;3.72;3.28;;;;;;;;;;5086459;28;20384;-85
2023/08/11 06:19:48;;;;;;;4.15;3.75;;;;;;;;;;5090915;28;20386;-85
2023/08/11 06:22:14;;;;;;;4.13;3.72;;;;;;;;;;5065483;28;20493;-85
2023/08/11 06:24:40;;;;;;;3.88;3.50;;;;;;;;;;5082657;28;20392;-85
2023/08/11 06:27:06;;;;;;;4.38;3.35;;;;;;;;;;5073651;28;20391;-85
2023/08/11 06:29:33;;;;;;;3.45;3.15;;;;;;;;;;5057811;28;20455;-85
2023/08/11 06:31:58;;;;;;;5.30;3.30;;;;;;;;;;5072047;28;20822;-85
2023/08/11 06:34:24;;;;;;;3.30;3.10;;;;;;;;;;5068727;28;20443;-85
2023/08/11 06:36:50;;;;;;;3.67;3.30;;;;;;;;;;5096797;28;20382;-84
2023/08/11 06:39:16;;;;;;;3.60;3.30;;;;;;;;;;5097536;28;20426;-86
2023/08/11 06:41:42;;;;;;;3.70;3.40;;;;;;;;;;5083680;28;20414;-85
2023/08/11 06:44:09;;;;;;;3.50;3.20;;;;;;;;;;5075057;28;20386;-87
2023/08/11 06:46:35;;;;;;;6.73;4.10;;;;;;;;;;5080448;28;20893;-86
2023/08/11 06:49:02;;;;;;;3.80;3.40;;;;;;;;;;5078948;28;20382;-85
2023/08/11 06:51:28;;;;;;;3.80;3.22;;;;;;;;;;5096323;28;20382;-86
2023/08/11 06:53:54;;;;;;;3.53;3.30;;;;;;;;;;5066650;28;20407;-85
2023/08/11 06:56:20;;;;;;;3.40;3.10;;;;;;;;;;5068665;28;20390;-86
2023/08/11 06:58:46;;;;;;;3.95;3.55;;;;;;;;;;5097567;28;20394;-86
2023/08/11 07:01:14;;;;;;;3.50;3.20;;;;;;;;;;5081715;28;20409;-85
2023/08/11 07:03:43;;;;;;;5.15;3.40;;;;;;;;;;5095396;28;20374;-85
2023/08/11 07:06:09;;;;;;;3.17;2.97;;;;;;;;;;5082078;28;20376;-86
2023/08/11 07:08:35;;;;;;;5.50;3.55;;;;;;;;;;5077096;28;20843;-86
2023/08/11 07:11:01;;;;;;;4.20;3.33;;;;;;;;;;5076503;28;20368;-85
2023/08/11 07:13:27;;;;;;;4.13;3.03;;;;;;;;;;5073073;28;20861;-85
2023/08/11 07:15:56;;;;;;;3.60;3.27;;;;;;;;;;5065074;28;20467;-85
2023/08/11 07:18:23;;;;;;;3.55;3.20;;;;;;;;;;5067096;28;20382;-86
2023/08/11 07:20:49;;;;;;;4.00;3.70;;;;;;;;;;5090408;28;20856;-85
2023/08/11 07:23:16;;;;;;;4.85;4.30;;;;;;;;;;5075155;28;20419;-85
2023/08/11 07:25:42;;;;;;;5.75;5.22;;;;;;;;;;5083583;28;20378;-86
2023/08/11 07:28:08;;;;;;;5.47;4.88;;;;;;;;;;5081241;28;20395;-85
2023/08/11 07:30:35;;;;;;;5.05;4.65;;;;;;;;;;5066691;28;20389;-85
2023/08/11 07:33:02;;;;;;;5.68;5.10;;;;;;;;;;5083152;28;20397;-86
2023/08/11 07:35:28;;;;;;;5.20;4.80;;;;;;;;;;5075441;28;20810;-85
2023/08/11 07:37:54;;;;;;;5.15;4.75;;;;;;;;;;5074278;28;20642;-86
2023/08/11 07:40:21;;;;;;;5.15;4.65;;;;;;;;;;5072817;28;20417;-86
2023/08/11 07:42:47;;;;;;;6.00;4.80;;;;;;;;;;5087809;28;20542;-86
2023/08/11 07:45:13;;;;;;;6.45;5.85;;;;;;;;;;5057773;28;20753;-86
2023/08/11 07:47:39;;;;;;;4.95;4.45;;;;;;;;;;5066937;28;20426;-86
2023/08/11 07:50:07;;;;;;;4.57;4.18;;;;;;;;;;5068973;28;20394;-86
2023/08/11 07:52:33;;;;;;;5.43;4.32;;;;;;;;;;5076705;28;20866;-86
2023/08/11 07:54:59;;;;;;;4.43;4.03;;;;;;;;;;5069001;28;20382;-86
2023/08/11 07:57:25;;;;;;;4.13;3.83;;;;;;;;;;5075223;28;20476;-86
2023/08/11 07:59:51;;;;;;;6.07;3.93;;;;;;;;;;5065771;28;20520;-86
2023/08/11 08:02:17;;;;;;;4.15;3.75;;;;;;;;;;5077737;28;20399;-85
2023/08/11 08:04:43;;;;;;;5.55;5.05;;;;;;;;;;5092905;28;20408;-86
2023/08/11 08:07:10;;;;;;;5.10;4.28;;;;;;;;;;5091066;28;20914;-85
2023/08/11 08:09:38;;;;;;;10.48;9.40;;;;;;;;;;5092131;28;20384;-85
2023/08/11 08:12:05;;;;;;;6.10;4.07;;;;;;;;;;5088768;28;20384;-85
2023/08/11 08:14:31;;;;;;;4.40;3.88;;;;;;;;;;5075416;28;20391;-86
2023/08/11 08:17:01;;;;;;;4.03;3.72;;;;;;;;;;5079763;28;20381;-85
2023/08/11 08:19:27;;;;;;;4.88;3.85;;;;;;;;;;5081538;28;20384;-85
2023/08/11 08:21:53;;;;;;;4.22;3.85;;;;;;;;;;5071788;28;20399;-86
2023/08/11 08:24:19;;;;;;;4.13;3.72;;;;;;;;;;5084551;28;20764;-86
2023/08/11 08:26:47;;;;;;;5.35;3.88;;;;;;;;;;5079011;28;20383;-86
2023/08/11 08:29:14;;;;;;;4.43;4.03;;;;;;;;;;5077592;28;20379;-86
2023/08/11 08:31:40;;;;;;;3.90;3.47;;;;;;;;;;5091115;28;20378;-85
2023/08/11 08:34:06;;;;;;;3.70;3.40;;;;;;;;;;5096023;28;20401;-86
2023/08/11 08:36:32;;;;;;;3.50;3.22;;;;;;;;;;5081869;28;20412;-85
2023/08/11 08:39:01;;;;;;;3.80;3.50;;;;;;;;;;5098602;28;20374;-86
2023/08/11 08:41:29;;;;;;;4.15;3.67;;;;;;;;;;5080334;28;20411;-87
2023/08/11 08:43:56;;;;;;;3.53;3.22;;;;;;;;;;5086160;28;20477;-87
2023/08/11 08:46:27;;;;;;;4.10;3.80;;;;;;;;;;5082522;28;20872;-87
2023/08/11 08:49:00;;;;;;;4.13;3.63;;;;;;;;;;5072347;28;20387;-86
2023/08/11 08:51:26;;;;;;;4.00;3.70;;;;;;;;;;5081906;28;20827;-86
2023/08/11 08:53:52;;;;;;;5.30;3.80;;;;;;;;;;5091111;28;20378;-86
2023/08/11 08:56:19;;;;;;;4.55;4.15;;;;;;;;;;5083859;28;20392;-86
2023/08/11 08:58:45;;;;;;;3.83;3.40;;;;;;;;;;5072744;28;20484;-86
2023/08/11 09:01:11;;;;;;;3.30;3.00;;;;;;;;;;5055837;28;21063;-87
2023/08/11 09:03:37;;;;;;;4.60;4.18;;;;;;;;;;5087061;28;20406;-86
2023/08/11 09:06:05;;;;;;;3.80;3.40;;;;;;;;;;5057535;28;20415;-86
2023/08/11 09:08:35;;;;;;;3.72;3.40;;;;;;;;;;5084158;28;20468;-86
2023/08/11 09:11:01;;;;;;;4.70;3.55;;;;;;;;;;5081954;28;20995;-86
2023/08/11 09:13:27;;;;;;;3.60;3.30;;;;;;;;;;5064337;28;20376;-87
2023/08/11 09:15:53;;;;;;;3.80;3.50;;;;;;;;;;5086776;28;20737;-86
2023/08/11 09:18:19;;;;;;;3.72;3.42;;;;;;;;;;5091723;28;20392;-86
2023/08/11 09:20:49;;;;;;;4.03;3.40;;;;;;;;;;5075705;28;20422;-86
2023/08/11 09:23:18;;;;;;;4.70;3.20;;;;;;;;;;5071794;28;20537;-87
2023/08/11 09:25:45;;;;;;;4.03;3.20;;;;;;;;;;5075980;28;20906;-86
2023/08/11 09:28:11;;;;;;;3.58;3.20;;;;;;;;;;5058884;28;20399;-86
2023/08/11 09:30:38;;;;;;;3.40;3.10;;;;;;;;;;5081571;28;20382;-86
2023/08/11 09:33:07;;;;;;;3.25;2.80;;;;;;;;;;5083264;28;20856;-86
2023/08/11 09:35:33;;;;;;;3.28;2.92;;;;;;;;;;5073852;28;20443;-86
2023/08/11 09:38:00;;;;;;;3.72;2.83;;;;;;;;;;5074189;28;20449;-86
2023/08/11 09:40:26;;;;;;;2.92;2.70;;;;;;;;;;5089929;28;20388;-86
2023/08/11 09:42:56;;;;;;;2.90;2.70;;;;;;;;;;5084669;28;20409;-86
2023/08/11 09:45:23;;;;;;;4.65;2.70;;;;;;;;;;5095382;28;20378;-88
2023/08/11 09:47:49;;;;;;;4.07;3.00;;;;;;;;;;5065453;28;20740;-86
2023/08/11 09:50:15;;;;;;;3.65;2.50;;;;;;;;;;5071907;28;20380;-86
2023/08/11 09:52:42;;;;;;;3.97;2.72;;;;;;;;;;5077484;28;20389;-86
2023/08/11 09:55:10;;;;;;;4.05;2.70;;;;;;;;;;5084330;28;20394;-86
2023/08/11 09:57:43;;;;;;;3.17;2.30;;;;;;;;;;5079730;28;20802;-86
2023/08/11 10:00:12;;;;;;;2.75;2.55;;;;;;;;;;5087038;28;20384;-86
2023/08/11 10:02:40;;;;;;;3.20;2.70;;;;;;;;;;5075722;28;20880;-86
2023/08/11 10:05:08;;;;;;;2.95;2.25;;;;;;;;;;5089328;28;20387;-86
2023/08/11 10:07:40;;;;;;;7.32;2.75;;;;;;;;;;5075256;28;20407;-86
2023/08/11 10:10:13;;;;;;;3.60;2.60;;;;;;;;;;5082863;28;20418;-84
2023/08/11 10:12:40;;;;;;;3.13;2.30;;;;;;;;;;5093694;28;20370;-84
2023/08/11 10:15:06;;;;;;;3.03;2.47;;;;;;;;;;5099580;28;20417;-84
2023/08/11 10:17:33;;;;;;;3.15;2.47;;;;;;;;;;5088405;28;20372;-85
2023/08/11 10:20:04;;;;;;;2.60;2.10;;;;;;;;;;5097506;28;20394;-84
2023/08/11 10:22:30;;;;;;;2.50;2.30;;;;;;;;;;5101786;28;20406;-84
2023/08/11 10:24:56;;;;;;;2.17;2.08;;;;;;;;;;5087837;28;20437;-85
2023/08/11 10:27:23;;;;;;;2.20;2.00;;;;;;;;;;5099024;28;20408;-85
2023/08/11 10:29:50;;;;;;;2.00;1.80;;;;;;;;;;5101931;28;20769;-84
2023/08/11 10:32:16;;;;;;;2.80;1.92;;;;;;;;;;5094274;28;20713;-85
2023/08/11 10:34:42;;;;;;;3.00;2.05;;;;;;;;;;5092105;28;20378;-85
2023/08/11 10:37:08;;;;;;;2.10;1.90;;;;;;;;;;5092581;28;20398;-85
2023/08/11 10:39:36;;;;;;;2.55;1.90;;;;;;;;;;5083243;28;20379;-85
2023/08/11 10:42:03;;;;;;;3.05;2.10;;;;;;;;;;5077870;28;20410;-85
2023/08/11 10:44:29;;;;;;;4.07;2.10;;;;;;;;;;5071498;28;20435;-85
2023/08/11 10:47:01;;;;;;;2.70;2.00;;;;;;;;;;5081565;28;20855;-85
2023/08/11 10:49:41;;;;;;;3.28;2.13;;;;;;;;;;5087017;28;20394;-85
2023/08/11 10:52:07;;;;;;;3.58;2.15;;;;;;;;;;5097856;28;20382;-85
2023/08/11 10:54:33;;;;;;;3.25;2.03;;;;;;;;;;5079813;28;20395;-85
2023/08/11 10:57:02;;;;;;;3.28;2.20;;;;;;;;;;5081055;28;20467;-85
2023/08/11 10:59:29;;;;;;;5.80;2.00;;;;;;;;;;5079991;28;20447;-85
2023/08/11 11:01:56;;;;;;;2.03;1.80;;;;;;;;;;5088796;28;20402;-85
2023/08/11 11:04:23;;;;;;;2.08;1.88;;;;;;;;;;5086725;28;20463;-85
2023/08/11 11:06:53;;;;;;;2.47;1.70;;;;;;;;;;5073760;28;20410;-85
2023/08/11 11:09:19;;;;;;;1.80;1.70;;;;;;;;;;5085202;28;20397;-85
2023/08/11 11:11:46;;;;;;;2.35;1.83;;;;;;;;;;5079907;28;20383;-85
2023/08/11 11:14:12;;;;;;;2.00;1.80;;;;;;;;;;5082151;28;20384;-85
2023/08/11 11:16:38;;;;;;;2.40;1.75;;;;;;;;;;5061885;28;20854;-85
2023/08/11 11:19:05;;;;;;;1.88;1.70;;;;;;;;;;5068802;28;20385;-85
2023/08/11 11:21:31;;;;;;;4.85;1.73;;;;;;;;;;5099175;28;20434;-86
2023/08/11 11:23:58;;;;;;;2.03;1.80;;;;;;;;;;5099701;28;20398;-86
2023/08/11 11:26:25;;;;;;;1.73;1.63;;;;;;;;;;5079232;28;20480;-86
2023/08/11 11:28:52;;;;;;;1.80;1.40;;;;;;;;;;5093722;28;20431;-84
2023/08/11 11:31:19;;;;;;;1.98;1.60;;;;;;;;;;5090965;28;20385;-85
2023/08/11 11:33:45;;;;;;;2.03;1.67;;;;;;;;;;5101853;28;20378;-85
2023/08/11 11:36:12;;;;;;;2.30;1.70;;;;;;;;;;5077261;28;20395;-85
2023/08/11 11:38:38;;;;;;;1.73;1.63;;;;;;;;;;5083654;28;20384;-86
2023/08/11 11:41:04;;;;;;;2.92;1.77;;;;;;;;;;5095038;28;20730;-85
2023/08/11 11:43:31;;;;;;;2.15;1.80;;;;;;;;;;5065713;28;20434;-85
2023/08/11 11:45:58;;;;;;;2.38;1.70;;;;;;;;;;5079291;28;20435;-85
2023/08/11 11:48:27;;;;;;;2.95;2.15;;;;;;;;;;5096313;28;20390;-86
2023/08/11 11:50:53;;;;;;;1.85;1.70;;;;;;;;;;5101087;28;20376;-85
2023/08/11 11:53:22;;;;;;;2.35;1.70;;;;;;;;;;5064264;28;20489;-85
2023/08/11 11:55:48;;;;;;;1.70;1.60;;;;;;;;;;5095349;28;20378;-86
2023/08/11 11:58:15;;;;;;;1.87;1.70;;;;;;;;;;5101721;28;20374;-86
2023/08/11 12:00:41;;;;;;;1.52;1.42;;;;;;;;;;5069818;28;20427;-86
2023/08/11 12:03:09;;;;;;;2.33;1.50;;;;;;;;;;5099054;28;20421;-86
2023/08/11 12:05:35;;;;;;;1.80;1.70;;;;;;;;;;5094577;28;20397;-86
2023/08/11 12:08:16;;;;;;;2.10;1.90;;;;;;;;;;5100805;28;20397;-86
2023/08/11 12:10:44;;;;;;;2.03;1.80;;;;;;;;;;5090898;28;20402;-87
2023/08/11 12:13:12;;;;;;;2.35;1.60;;;;;;;;;;5081450;28;20386;-86
2023/08/11 12:15:38;;;;;;;2.22;1.58;;;;;;;;;;5102667;28;20381;-86
2023/08/11 12:18:05;;;;;;;1.77;1.50;;;;;;;;;;5087238;28;20403;-85
2023/08/11 12:20:31;;;;;;;2.33;1.50;;;;;;;;;;5076310;28;20414;-87
2023/08/11 12:22:57;;;;;;;1.95;1.60;;;;;;;;;;5095147;28;20401;-86
2023/08/11 12:25:23;;;;;;;2.00;1.55;;;;;;;;;;5101751;28;20382;-86
2023/08/11 12:27:49;;;;;;;1.73;1.63;;;;;;;;;;5102859;28;20789;-86
2023/08/11 12:30:15;;;;;;;2.80;1.67;;;;;;;;;;5102494;28;20386;-86
2023/08/11 12:32:41;;;;;;;1.50;1.40;;;;;;;;;;5101336;28;20374;-86
2023/08/11 12:35:11;;;;;;;1.58;1.48;;;;;;;;;;5068835;28;20380;-87
2023/08/11 12:37:37;;;;;;;1.83;1.55;;;;;;;;;;5102841;28;20379;-85
2023/08/11 12:40:03;;;;;;;2.67;1.73;;;;;;;;;;5106142;28;20388;-85
2023/08/11 12:42:30;;;;;;;3.93;1.60;;;;;;;;;;5106696;28;20406;-85
2023/08/11 12:44:56;;;;;;;1.60;1.50;;;;;;;;;;5071665;28;20388;-84
2023/08/11 12:47:22;;;;;;;1.58;1.48;;;;;;;;;;5101838;28;20387;-85
2023/08/11 12:49:52;;;;;;;1.60;1.50;;;;;;;;;;5069421;28;20436;-85
2023/08/11 12:52:18;;;;;;;1.40;1.30;;;;;;;;;;5104040;28;20401;-85
2023/08/11 12:54:44;;;;;;;2.07;1.50;;;;;;;;;;5109090;28;20840;-85
2023/08/11 12:57:10;;;;;;;2.47;1.70;;;;;;;;;;5115316;22;20566;-78
2023/08/11 12:59:36;;;;;;;1.70;1.60;;;;;;;;;;5062000;28;20427;-79
2023/08/11 13:02:02;;;;;;;1.67;1.55;;;;;;;;;;5086917;28;20405;-78
2023/08/11 13:04:28;;;;;;;1.52;1.42;;;;;;;;;;5083152;28;20407;-79
2023/08/11 13:06:54;;;;;;;1.75;1.40;;;;;;;;;;5093653;28;20454;-79
2023/08/11 13:09:20;;;;;;;1.93;1.57;;;;;;;;;;5101879;28;20398;-79
2023/08/11 13:11:46;;;;;;;1.50;1.40;;;;;;;;;;5101924;28;20374;-78
2023/08/11 13:14:12;;;;;;;3.25;1.50;;;;;;;;;;5101215;28;20481;-78
2023/08/11 13:16:38;;;;;;;2.95;1.40;;;;;;;;;;5098793;28;20391;-79
2023/08/11 13:19:05;;;;;;;1.83;1.60;;;;;;;;;;5090777;28;21125;-79
2023/08/11 13:21:31;;;;;;;3.47;1.80;;;;;;;;;;5083108;28;20889;-79
2023/08/11 13:23:58;;;;;;;1.63;1.50;;;;;;;;;;5073253;28;20378;-80
2023/08/11 13:26:24;;;;;;;1.30;1.20;;;;;;;;;;5093543;28;20418;-82
2023/08/11 13:28:50;;;;;;;2.80;1.30;;;;;;;;;;5081756;28;20400;-82
2023/08/11 13:31:16;;;;;;;1.70;1.55;;;;;;;;;;5079721;28;20382;-82
2023/08/11 13:33:42;;;;;;;2.13;1.50;;;;;;;;;;5089448;28;20374;-82
2023/08/11 13:36:09;;;;;;;1.87;1.30;;;;;;;;;;5102391;28;20446;-82
2023/08/11 13:38:35;;;;;;;1.67;1.30;;;;;;;;;;5083517;28;20394;-82
2023/08/11 13:41:01;;;;;;;1.60;1.50;;;;;;;;;;5084261;28;20381;-82
2023/08/11 13:43:27;;;;;;;1.50;1.40;;;;;;;;;;5088446;28;20382;-82
2023/08/11 13:45:53;;;;;;;1.50;1.40;;;;;;;;;;5105574;28;20376;-82
2023/08/11 13:48:21;;;;;;;1.40;1.30;;;;;;;;;;5087399;28;20388;-82
2023/08/11 13:50:47;;;;;;;1.77;1.33;;;;;;;;;;5096465;28;20468;-82
2023/08/11 13:53:14;;;;;;;1.50;1.40;;;;;;;;;;5093325;28;20393;-82
2023/08/11 13:55:40;;;;;;;2.70;1.45;;;;;;;;;;5093363;28;20415;-82
2023/08/11 13:58:06;;;;;;;1.55;1.45;;;;;;;;;;5079593;28;20841;-82
2023/08/11 14:00:32;;;;;;;3.08;1.50;;;;;;;;;;5096312;28;20381;-82
2023/08/11 14:02:58;;;;;;;1.50;1.40;;;;;;;;;;5100321;28;20410;-82
2023/08/11 14:05:24;;;;;;;2.10;1.40;;;;;;;;;;5100065;28;20396;-82
2023/08/11 14:07:50;;;;;;;1.40;1.30;;;;;;;;;;5100846;28;20386;-82
2023/08/11 14:10:16;;;;;;;2.57;1.53;;;;;;;;;;5099773;28;20394;-82
2023/08/11 14:12:42;;;;;;;1.30;1.20;;;;;;;;;;5098639;28;20386;-82
2023/08/11 14:15:09;;;;;;;1.77;1.60;;;;;;;;;;5079024;28;20390;-82
2023/08/11 14:17:34;;;;;;;1.65;1.38;;;;;;;;;;5080611;28;20469;-82
2023/08/11 14:20:00;;;;;;;1.85;1.40;;;;;;;;;;5089441;28;20386;-82
2023/08/11 14:22:26;;;;;;;1.83;1.50;;;;;;;;;;5098891;28;20937;-82
2023/08/11 14:24:52;;;;;;;1.42;1.33;;;;;;;;;;5100148;28;20392;-82
2023/08/11 14:27:18;;;;;;;1.67;1.58;;;;;;;;;;5099282;28;20941;-82
2023/08/11 14:29:44;;;;;;;1.50;1.40;;;;;;;;;;5088381;28;20487;-82
2023/08/11 14:32:10;;;;;;;3.33;2.92;;;;;;;;;;5090019;28;20457;-82
2023/08/11 14:34:36;;;;;;;1.77;1.45;;;;;;;;;;5084361;28;20417;-82
2023/08/11 14:37:02;;;;;;;2.70;1.40;;;;;;;;;;5095148;28;20374;-82
2023/08/11 14:39:28;;;;;;;2.35;1.60;;;;;;;;;;5099311;28;20766;-82